Main page
METAR-TAF:

METAR-TAF

Airports :

Seville, Spain

Seville Airport

latitude: 37-25N, longitude: 005-54W, elevation: 34 m

Current weather observation

The report was made 19 minutes ago, at 11:30 UTC
Wind 7 kt from the Northeast, varying between North/Northeast and East
Temperature 20°C
Humidity 37%
Pressure 1023 hPa
Visibility 10 km or more
no clouds below 1500 m and no cumulonimbus

METAR: LEZL 201130Z 05007KT 020V080 CAVOK 20/05 Q1023 NOSIG

Time: 12:49 (11:49 UTC)

Forecast

The report was made 3 hours and 49 minutes ago, at 08:00 UTC
Forecast valid from 20 at 09 UTC to 21 at 09 UTC
Wind 6 kt from the East/Northeast
Visibility 10 km or more
no clouds below 1500 m and no cumulonimbus

TAF: LEZL 200800Z 2009/2109 06006KT CAVOK TX25/2015Z TN07/2106Z

Weather observations and forecasts of more than 4000 airports (METAR and TAF reports).

The available stations are represented by yellow and red dots on the map.

Hover mouse over dot to see the name of the station.

Then click to see weather observations and forecasts.

To change the map : click on the green buttons with a black cross to zoom in, on the green button with a dash to zoom out, or on the green arrows for adjacent maps.


METAR-TAF: